Terminal Aerodrome Forecast
Issued by NWS Greer, SC

Home | Current Version | Previous Version | Text Only | Print | Product List | Glossary On
Versions: 1 2 3 4 5 6 7 8 9 10 11 12 13 14 15 16 17 18 19 20 21 22 23 24 25 26 27 28 29 30 31 32 33 34 35 36 37 38 39 40 41 42
000
FTUS42 KGSP 012333
TAFAVL
TAF
KAVL 012333Z 0200/0224 16004KT P6SM VCSH SCT100 BKN210
     FM020700 33006KT 3SM BR OVC005
     FM021400 34010KT P6SM BKN005
     FM021600 34012KT P6SM BKN012
     FM022100 36007KT P6SM BKN050=

USA.gov is the U.S. government's official web portal to all federal, state and local government web resources and services.